Aviation Digital Data Service (ADDS)

Output produced by METARs form (1714 UTC 24 June 2019)
found at http://www.aviationweather.gov/metar/data/
 
METAR text: UUWW 241700Z 33005MPS CAVOK 22/05 Q1023 WS R06 R06/000070 NOSIG
Conditions at: UUWW (MOSCOW/VNUKOVO , RU) observed 1700 UTC 24 June 2019
Temperature: 22.0°C (72°F)
Dewpoint: 5.0°C (41°F) [RH = 33%]
Pressure (altimeter): 30.21 inches Hg (1023.0 mb)
Winds: from the NNW (330 degrees) at 12 MPH (10 knots; 5.1 m/s)
Visibility: 6 or more miles (10+ km)
Ceiling: ceiling and visibility are OK
Clouds: unknown
Weather: no significant weather observed at this time

METAR text: UUWW 241630Z 33005MPS CAVOK 23/04 Q1023 WS R06 R06/000070 NOSIG
Conditions at: UUWW (MOSCOW/VNUKOVO , RU) observed 1630 UTC 24 June 2019
Temperature: 23.0°C (73°F)
Dewpoint: 4.0°C (39°F) [RH = 29%]
Pressure (altimeter): 30.21 inches Hg (1023.0 mb)
Winds: from the NNW (330 degrees) at 12 MPH (10 knots; 5.1 m/s)
Visibility: 6 or more miles (10+ km)
Ceiling: ceiling and visibility are OK
Clouds: unknown
Weather: no significant weather observed at this time

METAR text: UUWW 241600Z 35005G10MPS CAVOK 24/04 Q1022 WS R06 R06/000070 NOSIG
Conditions at: UUWW (MOSCOW/VNUKOVO , RU) observed 1600 UTC 24 June 2019
Temperature: 24.0°C (75°F)
Dewpoint: 4.0°C (39°F) [RH = 27%]
Pressure (altimeter): 30.18 inches Hg (1022.0 mb)
Winds: from the N (350 degrees) at 12 MPH (10 knots; 5.1 m/s)
gusting to 22 MPH (19 knots; 9.8 m/s)
Visibility: 6 or more miles (10+ km)
Ceiling: ceiling and visibility are OK
Clouds: unknown
Weather: no significant weather observed at this time

METAR text: UUWW 241530Z 01005MPS CAVOK 24/04 Q1022 WS R06 R06/000070 NOSIG
Conditions at: UUWW (MOSCOW/VNUKOVO , RU) observed 1530 UTC 24 June 2019
Temperature: 24.0°C (75°F)
Dewpoint: 4.0°C (39°F) [RH = 27%]
Pressure (altimeter): 30.18 inches Hg (1022.0 mb)
Winds: from the N (10 degrees) at 12 MPH (10 knots; 5.1 m/s)
Visibility: 6 or more miles (10+ km)
Ceiling: ceiling and visibility are OK
Clouds: unknown
Weather: no significant weather observed at this time

METAR text: UUWW 241500Z 34003MPS 300V030 CAVOK 24/05 Q1022 R06/000070 NOSIG
Conditions at: UUWW (MOSCOW/VNUKOVO , RU) observed 1500 UTC 24 June 2019
Temperature: 24.0°C (75°F)
Dewpoint: 5.0°C (41°F) [RH = 29%]
Pressure (altimeter): 30.18 inches Hg (1022.0 mb)
Winds: from the NNW (340 degrees) at 7 MPH (6 knots; 3.1 m/s)
Visibility: 6 or more miles (10+ km)
Ceiling: ceiling and visibility are OK
Clouds: unknown
Weather: no significant weather observed at this time

METAR text: UUWW 241430Z 33004MPS CAVOK 24/04 Q1022 R06/000070 NOSIG
Conditions at: UUWW (MOSCOW/VNUKOVO , RU) observed 1430 UTC 24 June 2019
Temperature: 24.0°C (75°F)
Dewpoint: 4.0°C (39°F) [RH = 27%]
Pressure (altimeter): 30.18 inches Hg (1022.0 mb)
Winds: from the NNW (330 degrees) at 9 MPH (8 knots; 4.1 m/s)
Visibility: 6 or more miles (10+ km)
Ceiling: ceiling and visibility are OK
Clouds: unknown
Weather: no significant weather observed at this time

METAR text: UUWW 241400Z 33005MPS CAVOK 24/05 Q1022 WS R06 R06/000070 NOSIG
Conditions at: UUWW (MOSCOW/VNUKOVO , RU) observed 1400 UTC 24 June 2019
Temperature: 24.0°C (75°F)
Dewpoint: 5.0°C (41°F) [RH = 29%]
Pressure (altimeter): 30.18 inches Hg (1022.0 mb)
Winds: from the NNW (330 degrees) at 12 MPH (10 knots; 5.1 m/s)
Visibility: 6 or more miles (10+ km)
Ceiling: ceiling and visibility are OK
Clouds: unknown
Weather: no significant weather observed at this time

METAR text: UUWW 241330Z 34006MPS CAVOK 24/04 Q1022 R06/000070 NOSIG
Conditions at: UUWW (MOSCOW/VNUKOVO , RU) observed 1330 UTC 24 June 2019
Temperature: 24.0°C (75°F)
Dewpoint: 4.0°C (39°F) [RH = 27%]
Pressure (altimeter): 30.18 inches Hg (1022.0 mb)
Winds: from the NNW (340 degrees) at 14 MPH (12 knots; 6.2 m/s)
Visibility: 6 or more miles (10+ km)
Ceiling: ceiling and visibility are OK
Clouds: unknown
Weather: no significant weather observed at this time

METAR text: UUWW 241300Z 34004G11MPS 320V030 CAVOK 25/04 Q1022 R06/000070 NOSIG
Conditions at: UUWW (MOSCOW/VNUKOVO , RU) observed 1300 UTC 24 June 2019
Temperature: 25.0°C (77°F)
Dewpoint: 4.0°C (39°F) [RH = 26%]
Pressure (altimeter): 30.18 inches Hg (1022.0 mb)
Winds: from the NNW (340 degrees) at 9 MPH (8 knots; 4.1 m/s)
gusting to 24 MPH (21 knots; 10.8 m/s)
Visibility: 6 or more miles (10+ km)
Ceiling: ceiling and visibility are OK
Clouds: unknown
Weather: no significant weather observed at this time

METAR text: UUWW 241230Z 31005MPS CAVOK 24/04 Q1022 WS R06 R06/000070 NOSIG
Conditions at: UUWW (MOSCOW/VNUKOVO , RU) observed 1230 UTC 24 June 2019
Temperature: 24.0°C (75°F)
Dewpoint: 4.0°C (39°F) [RH = 27%]
Pressure (altimeter): 30.18 inches Hg (1022.0 mb)
Winds: from the NW (310 degrees) at 12 MPH (10 knots; 5.1 m/s)
Visibility: 6 or more miles (10+ km)
Ceiling: ceiling and visibility are OK
Clouds: unknown
Weather: no significant weather observed at this time

METAR text: UUWW 241200Z 36005G10MPS 320V040 CAVOK 24/04 Q1022 WS R06 R06/000070 NOSIG
Conditions at: UUWW (MOSCOW/VNUKOVO , RU) observed 1200 UTC 24 June 2019
Temperature: 24.0°C (75°F)
Dewpoint: 4.0°C (39°F) [RH = 27%]
Pressure (altimeter): 30.18 inches Hg (1022.0 mb)
Winds: from the N (360 degrees) at 12 MPH (10 knots; 5.1 m/s)
gusting to 22 MPH (19 knots; 9.8 m/s)
Visibility: 6 or more miles (10+ km)
Ceiling: ceiling and visibility are OK
Clouds: unknown
Weather: no significant weather observed at this time

METAR text: UUWW 241130Z 32004MPS 290V010 CAVOK 25/05 Q1022 WS R06 R06/000070 NOSIG
Conditions at: UUWW (MOSCOW/VNUKOVO , RU) observed 1130 UTC 24 June 2019
Temperature: 25.0°C (77°F)
Dewpoint: 5.0°C (41°F) [RH = 28%]
Pressure (altimeter): 30.18 inches Hg (1022.0 mb)
Winds: from the NW (320 degrees) at 9 MPH (8 knots; 4.1 m/s)
Visibility: 6 or more miles (10+ km)
Ceiling: ceiling and visibility are OK
Clouds: unknown
Weather: no significant weather observed at this time

METAR text: UUWW 241100Z 34005MPS 320V040 CAVOK 25/05 Q1022 WS R06 R06/000070 NOSIG
Conditions at: UUWW (MOSCOW/VNUKOVO , RU) observed 1100 UTC 24 June 2019
Temperature: 25.0°C (77°F)
Dewpoint: 5.0°C (41°F) [RH = 28%]
Pressure (altimeter): 30.18 inches Hg (1022.0 mb)
Winds: from the NNW (340 degrees) at 12 MPH (10 knots; 5.1 m/s)
Visibility: 6 or more miles (10+ km)
Ceiling: ceiling and visibility are OK
Clouds: unknown
Weather: no significant weather observed at this time

METAR text: UUWW 241030Z 04005G11MPS CAVOK 24/05 Q1022 R06/000070 NOSIG
Conditions at: UUWW (MOSCOW/VNUKOVO , RU) observed 1030 UTC 24 June 2019
Temperature: 24.0°C (75°F)
Dewpoint: 5.0°C (41°F) [RH = 29%]
Pressure (altimeter): 30.18 inches Hg (1022.0 mb)
Winds: from the NE (40 degrees) at 12 MPH (10 knots; 5.1 m/s)
gusting to 24 MPH (21 knots; 10.8 m/s)
Visibility: 6 or more miles (10+ km)
Ceiling: ceiling and visibility are OK
Clouds: unknown
Weather: no significant weather observed at this time

METAR text: UUWW 241000Z 35004MPS 300V030 CAVOK 24/05 Q1022 R06/000070 NOSIG
Conditions at: UUWW (MOSCOW/VNUKOVO , RU) observed 1000 UTC 24 June 2019
Temperature: 24.0°C (75°F)
Dewpoint: 5.0°C (41°F) [RH = 29%]
Pressure (altimeter): 30.18 inches Hg (1022.0 mb)
Winds: from the N (350 degrees) at 9 MPH (8 knots; 4.1 m/s)
Visibility: 6 or more miles (10+ km)
Ceiling: ceiling and visibility are OK
Clouds: unknown
Weather: no significant weather observed at this time

METAR text: UUWW 240930Z 34004MPS 320V040 CAVOK 23/05 Q1022 R06/000070 NOSIG
Conditions at: UUWW (MOSCOW/VNUKOVO , RU) observed 0930 UTC 24 June 2019
Temperature: 23.0°C (73°F)
Dewpoint: 5.0°C (41°F) [RH = 31%]
Pressure (altimeter): 30.18 inches Hg (1022.0 mb)
Winds: from the NNW (340 degrees) at 9 MPH (8 knots; 4.1 m/s)
Visibility: 6 or more miles (10+ km)
Ceiling: ceiling and visibility are OK
Clouds: unknown
Weather: no significant weather observed at this time

METAR text: UUWW 240900Z 04004MPS 360V090 CAVOK 23/04 Q1023 R06/000070 NOSIG
Conditions at: UUWW (MOSCOW/VNUKOVO , RU) observed 0900 UTC 24 June 2019
Temperature: 23.0°C (73°F)
Dewpoint: 4.0°C (39°F) [RH = 29%]
Pressure (altimeter): 30.21 inches Hg (1023.0 mb)
Winds: from the NE (40 degrees) at 9 MPH (8 knots; 4.1 m/s)
Visibility: 6 or more miles (10+ km)
Ceiling: ceiling and visibility are OK
Clouds: unknown
Weather: no significant weather observed at this time

METAR text: UUWW 240830Z 02003MPS 340V080 CAVOK 23/06 Q1022 R06/000070 NOSIG
Conditions at: UUWW (MOSCOW/VNUKOVO , RU) observed 0830 UTC 24 June 2019
Temperature: 23.0°C (73°F)
Dewpoint: 6.0°C (43°F) [RH = 33%]
Pressure (altimeter): 30.18 inches Hg (1022.0 mb)
Winds: from the NNE (20 degrees) at 7 MPH (6 knots; 3.1 m/s)
Visibility: 6 or more miles (10+ km)
Ceiling: ceiling and visibility are OK
Clouds: unknown
Weather: no significant weather observed at this time

METAR text: UUWW 240800Z 33003G08MPS 290V030 CAVOK 23/05 Q1022 R06/000070 NOSIG
Conditions at: UUWW (MOSCOW/VNUKOVO , RU) observed 0800 UTC 24 June 2019
Temperature: 23.0°C (73°F)
Dewpoint: 5.0°C (41°F) [RH = 31%]
Pressure (altimeter): 30.18 inches Hg (1022.0 mb)
Winds: from the NNW (330 degrees) at 7 MPH (6 knots; 3.1 m/s)
gusting to 18 MPH (16 knots; 8.2 m/s)
Visibility: 6 or more miles (10+ km)
Ceiling: ceiling and visibility are OK
Clouds: unknown
Weather: no significant weather observed at this time

METAR text: UUWW 240730Z 01004G09MPS 340V050 CAVOK 22/06 Q1023 R06/000070 NOSIG
Conditions at: UUWW (MOSCOW/VNUKOVO , RU) observed 0730 UTC 24 June 2019
Temperature: 22.0°C (72°F)
Dewpoint: 6.0°C (43°F) [RH = 35%]
Pressure (altimeter): 30.21 inches Hg (1023.0 mb)
Winds: from the N (10 degrees) at 9 MPH (8 knots; 4.1 m/s)
gusting to 20 MPH (17 knots; 8.7 m/s)
Visibility: 6 or more miles (10+ km)
Ceiling: ceiling and visibility are OK
Clouds: unknown
Weather: no significant weather observed at this time

METAR text: UUWW 240700Z 01005MPS 340V080 CAVOK 22/06 Q1022 R06/000070 NOSIG
Conditions at: UUWW (MOSCOW/VNUKOVO , RU) observed 0700 UTC 24 June 2019
Temperature: 22.0°C (72°F)
Dewpoint: 6.0°C (43°F) [RH = 35%]
Pressure (altimeter): 30.18 inches Hg (1022.0 mb)
Winds: from the N (10 degrees) at 12 MPH (10 knots; 5.1 m/s)
Visibility: 6 or more miles (10+ km)
Ceiling: ceiling and visibility are OK
Clouds: unknown
Weather: no significant weather observed at this time

METAR text: UUWW 240630Z 02003G08MPS CAVOK 21/06 Q1023 R01/000070 R06/000070 NOSIG
Conditions at: UUWW (MOSCOW/VNUKOVO , RU) observed 0630 UTC 24 June 2019
Temperature: 21.0°C (70°F)
Dewpoint: 6.0°C (43°F) [RH = 38%]
Pressure (altimeter): 30.21 inches Hg (1023.0 mb)
Winds: from the NNE (20 degrees) at 7 MPH (6 knots; 3.1 m/s)
gusting to 18 MPH (16 knots; 8.2 m/s)
Visibility: 6 or more miles (10+ km)
Ceiling: ceiling and visibility are OK
Clouds: unknown
Weather: no significant weather observed at this time

METAR text: UUWW 240600Z 36004MPS 330V050 CAVOK 21/06 Q1022 R01/000070 R06/000070 NOSIG
Conditions at: UUWW (MOSCOW/VNUKOVO , RU) observed 0600 UTC 24 June 2019
Temperature: 21.0°C (70°F)
Dewpoint: 6.0°C (43°F) [RH = 38%]
Pressure (altimeter): 30.18 inches Hg (1022.0 mb)
Winds: from the N (360 degrees) at 9 MPH (8 knots; 4.1 m/s)
Visibility: 6 or more miles (10+ km)
Ceiling: ceiling and visibility are OK
Clouds: unknown
Weather: no significant weather observed at this time

METAR text: UUWW 240530Z 01005MPS CAVOK 21/06 Q1023 R01/000070 R06/000070 NOSIG
Conditions at: UUWW (MOSCOW/VNUKOVO , RU) observed 0530 UTC 24 June 2019
Temperature: 21.0°C (70°F)
Dewpoint: 6.0°C (43°F) [RH = 38%]
Pressure (altimeter): 30.21 inches Hg (1023.0 mb)
Winds: from the N (10 degrees) at 12 MPH (10 knots; 5.1 m/s)
Visibility: 6 or more miles (10+ km)
Ceiling: ceiling and visibility are OK
Clouds: unknown
Weather: no significant weather observed at this time

METAR text: UUWW 240500Z 01005MPS CAVOK 20/06 Q1023 R06/000070 NOSIG
Conditions at: UUWW (MOSCOW/VNUKOVO , RU) observed 0500 UTC 24 June 2019
Temperature: 20.0°C (68°F)
Dewpoint: 6.0°C (43°F) [RH = 40%]
Pressure (altimeter): 30.21 inches Hg (1023.0 mb)
Winds: from the N (10 degrees) at 12 MPH (10 knots; 5.1 m/s)
Visibility: 6 or more miles (10+ km)
Ceiling: ceiling and visibility are OK
Clouds: unknown
Weather: no significant weather observed at this time

METAR text: UUWW 240430Z 03004MPS CAVOK 20/08 Q1023 R06/000070 NOSIG
Conditions at: UUWW (MOSCOW/VNUKOVO , RU) observed 0430 UTC 24 June 2019
Temperature: 20.0°C (68°F)
Dewpoint: 8.0°C (46°F) [RH = 46%]
Pressure (altimeter): 30.21 inches Hg (1023.0 mb)
Winds: from the NNE (30 degrees) at 9 MPH (8 knots; 4.1 m/s)
Visibility: 6 or more miles (10+ km)
Ceiling: ceiling and visibility are OK
Clouds: unknown
Weather: no significant weather observed at this time

METAR text: UUWW 240400Z 02004MPS CAVOK 19/09 Q1022 R06/000070 NOSIG
Conditions at: UUWW (MOSCOW/VNUKOVO , RU) observed 0400 UTC 24 June 2019
Temperature: 19.0°C (66°F)
Dewpoint: 9.0°C (48°F) [RH = 52%]
Pressure (altimeter): 30.18 inches Hg (1022.0 mb)
Winds: from the NNE (20 degrees) at 9 MPH (8 knots; 4.1 m/s)
Visibility: 6 or more miles (10+ km)
Ceiling: ceiling and visibility are OK
Clouds: unknown
Weather: no significant weather observed at this time

METAR text: UUWW 240330Z 02004MPS CAVOK 18/09 Q1022 R01/000070 NOSIG
Conditions at: UUWW (MOSCOW/VNUKOVO , RU) observed 0330 UTC 24 June 2019
Temperature: 18.0°C (64°F)
Dewpoint: 9.0°C (48°F) [RH = 56%]
Pressure (altimeter): 30.18 inches Hg (1022.0 mb)
Winds: from the NNE (20 degrees) at 9 MPH (8 knots; 4.1 m/s)
Visibility: 6 or more miles (10+ km)
Ceiling: ceiling and visibility are OK
Clouds: unknown
Weather: no significant weather observed at this time

METAR text: UUWW 240300Z 02003MPS CAVOK 17/10 Q1022 R01/000070 NOSIG
Conditions at: UUWW (MOSCOW/VNUKOVO , RU) observed 0300 UTC 24 June 2019
Temperature: 17.0°C (63°F)
Dewpoint: 10.0°C (50°F) [RH = 63%]
Pressure (altimeter): 30.18 inches Hg (1022.0 mb)
Winds: from the NNE (20 degrees) at 7 MPH (6 knots; 3.1 m/s)
Visibility: 6 or more miles (10+ km)
Ceiling: ceiling and visibility are OK
Clouds: unknown
Weather: no significant weather observed at this time

METAR text: UUWW 240230Z 36003MPS CAVOK 16/10 Q1022 R01/000070 NOSIG
Conditions at: UUWW (MOSCOW/VNUKOVO , RU) observed 0230 UTC 24 June 2019
Temperature: 16.0°C (61°F)
Dewpoint: 10.0°C (50°F) [RH = 68%]
Pressure (altimeter): 30.18 inches Hg (1022.0 mb)
Winds: from the N (360 degrees) at 7 MPH (6 knots; 3.1 m/s)
Visibility: 6 or more miles (10+ km)
Ceiling: ceiling and visibility are OK
Clouds: unknown
Weather: no significant weather observed at this time

METAR text: UUWW 240200Z 36003MPS CAVOK 16/10 Q1022 R01/000070 NOSIG
Conditions at: UUWW (MOSCOW/VNUKOVO , RU) observed 0200 UTC 24 June 2019
Temperature: 16.0°C (61°F)
Dewpoint: 10.0°C (50°F) [RH = 68%]
Pressure (altimeter): 30.18 inches Hg (1022.0 mb)
Winds: from the N (360 degrees) at 7 MPH (6 knots; 3.1 m/s)
Visibility: 6 or more miles (10+ km)
Ceiling: ceiling and visibility are OK
Clouds: unknown
Weather: no significant weather observed at this time

METAR text: UUWW 240130Z 36003MPS CAVOK 16/10 Q1022 R01/000070 NOSIG
Conditions at: UUWW (MOSCOW/VNUKOVO , RU) observed 0130 UTC 24 June 2019
Temperature: 16.0°C (61°F)
Dewpoint: 10.0°C (50°F) [RH = 68%]
Pressure (altimeter): 30.18 inches Hg (1022.0 mb)
Winds: from the N (360 degrees) at 7 MPH (6 knots; 3.1 m/s)
Visibility: 6 or more miles (10+ km)
Ceiling: ceiling and visibility are OK
Clouds: unknown
Weather: no significant weather observed at this time

METAR text: UUWW 240100Z 01003MPS CAVOK 16/09 Q1021 R01/000070 NOSIG
Conditions at: UUWW (MOSCOW/VNUKOVO , RU) observed 0100 UTC 24 June 2019
Temperature: 16.0°C (61°F)
Dewpoint: 9.0°C (48°F) [RH = 63%]
Pressure (altimeter): 30.15 inches Hg (1021.0 mb)
Winds: from the N (10 degrees) at 7 MPH (6 knots; 3.1 m/s)
Visibility: 6 or more miles (10+ km)
Ceiling: ceiling and visibility are OK
Clouds: unknown
Weather: no significant weather observed at this time

METAR text: UUWW 240030Z 35003MPS CAVOK 16/10 Q1021 R06/000070 NOSIG
Conditions at: UUWW (MOSCOW/VNUKOVO , RU) observed 0030 UTC 24 June 2019
Temperature: 16.0°C (61°F)
Dewpoint: 10.0°C (50°F) [RH = 68%]
Pressure (altimeter): 30.15 inches Hg (1021.0 mb)
Winds: from the N (350 degrees) at 7 MPH (6 knots; 3.1 m/s)
Visibility: 6 or more miles (10+ km)
Ceiling: ceiling and visibility are OK
Clouds: unknown
Weather: no significant weather observed at this time

METAR text: UUWW 240000Z 36003G08MPS CAVOK 17/09 Q1021 R06/000070 NOSIG
Conditions at: UUWW (MOSCOW/VNUKOVO , RU) observed 0000 UTC 24 June 2019
Temperature: 17.0°C (63°F)
Dewpoint: 9.0°C (48°F) [RH = 59%]
Pressure (altimeter): 30.15 inches Hg (1021.0 mb)
Winds: from the N (360 degrees) at 7 MPH (6 knots; 3.1 m/s)
gusting to 18 MPH (16 knots; 8.2 m/s)
Visibility: 6 or more miles (10+ km)
Ceiling: ceiling and visibility are OK
Clouds: unknown
Weather: no significant weather observed at this time

METAR text: UUWW 232330Z VRB01MPS CAVOK 17/09 Q1021 R06/000070 NOSIG
Conditions at: UUWW (MOSCOW/VNUKOVO , RU) observed 2330 UTC 23 June 2019
Temperature: 17.0°C (63°F)
Dewpoint: 9.0°C (48°F) [RH = 59%]
Pressure (altimeter): 30.15 inches Hg (1021.0 mb)
Winds: variable direction winds at 2 MPH (2 knots; 1.0 m/s)
Visibility: 6 or more miles (10+ km)
Ceiling: ceiling and visibility are OK
Clouds: unknown
Weather: no significant weather observed at this time

METAR text: UUWW 232300Z VRB02MPS CAVOK 18/09 Q1021 R06/000070 NOSIG
Conditions at: UUWW (MOSCOW/VNUKOVO , RU) observed 2300 UTC 23 June 2019
Temperature: 18.0°C (64°F)
Dewpoint: 9.0°C (48°F) [RH = 56%]
Pressure (altimeter): 30.15 inches Hg (1021.0 mb)
Winds: variable direction winds at 5 MPH (4 knots; 2.1 m/s)
Visibility: 6 or more miles (10+ km)
Ceiling: ceiling and visibility are OK
Clouds: unknown
Weather: no significant weather observed at this time

METAR text: UUWW 232230Z 25001MPS CAVOK 17/09 Q1021 R06/000070 NOSIG
Conditions at: UUWW (MOSCOW/VNUKOVO , RU) observed 2230 UTC 23 June 2019
Temperature: 17.0°C (63°F)
Dewpoint: 9.0°C (48°F) [RH = 59%]
Pressure (altimeter): 30.15 inches Hg (1021.0 mb)
Winds: from the WSW (250 degrees) at 2 MPH (2 knots; 1.0 m/s)
Visibility: 6 or more miles (10+ km)
Ceiling: ceiling and visibility are OK
Clouds: unknown
Weather: no significant weather observed at this time

METAR text: UUWW 232200Z 20002MPS CAVOK 17/10 Q1021 R06/000070 NOSIG
Conditions at: UUWW (MOSCOW/VNUKOVO , RU) observed 2200 UTC 23 June 2019
Temperature: 17.0°C (63°F)
Dewpoint: 10.0°C (50°F) [RH = 63%]
Pressure (altimeter): 30.15 inches Hg (1021.0 mb)
Winds: from the SSW (200 degrees) at 5 MPH (4 knots; 2.1 m/s)
Visibility: 6 or more miles (10+ km)
Ceiling: ceiling and visibility are OK
Clouds: unknown
Weather: no significant weather observed at this time

METAR text: UUWW 232130Z 24001MPS CAVOK 18/09 Q1021 R06/000070 NOSIG
Conditions at: UUWW (MOSCOW/VNUKOVO , RU) observed 2130 UTC 23 June 2019
Temperature: 18.0°C (64°F)
Dewpoint: 9.0°C (48°F) [RH = 56%]
Pressure (altimeter): 30.15 inches Hg (1021.0 mb)
Winds: from the WSW (240 degrees) at 2 MPH (2 knots; 1.0 m/s)
Visibility: 6 or more miles (10+ km)
Ceiling: ceiling and visibility are OK
Clouds: unknown
Weather: no significant weather observed at this time

METAR text: UUWW 232100Z VRB02MPS CAVOK 19/09 Q1021 R06/000070 NOSIG
Conditions at: UUWW (MOSCOW/VNUKOVO , RU) observed 2100 UTC 23 June 2019
Temperature: 19.0°C (66°F)
Dewpoint: 9.0°C (48°F) [RH = 52%]
Pressure (altimeter): 30.15 inches Hg (1021.0 mb)
Winds: variable direction winds at 5 MPH (4 knots; 2.1 m/s)
Visibility: 6 or more miles (10+ km)
Ceiling: ceiling and visibility are OK
Clouds: unknown
Weather: no significant weather observed at this time

METAR text: UUWW 232030Z 35003MPS 320V030 CAVOK 19/09 Q1021 R06/000070 NOSIG
Conditions at: UUWW (MOSCOW/VNUKOVO , RU) observed 2030 UTC 23 June 2019
Temperature: 19.0°C (66°F)
Dewpoint: 9.0°C (48°F) [RH = 52%]
Pressure (altimeter): 30.15 inches Hg (1021.0 mb)
Winds: from the N (350 degrees) at 7 MPH (6 knots; 3.1 m/s)
Visibility: 6 or more miles (10+ km)
Ceiling: ceiling and visibility are OK
Clouds: unknown
Weather: no significant weather observed at this time

METAR text: UUWW 232000Z 35004MPS 320V030 CAVOK 19/09 Q1021 R06/000070 NOSIG
Conditions at: UUWW (MOSCOW/VNUKOVO , RU) observed 2000 UTC 23 June 2019
Temperature: 19.0°C (66°F)
Dewpoint: 9.0°C (48°F) [RH = 52%]
Pressure (altimeter): 30.15 inches Hg (1021.0 mb)
Winds: from the N (350 degrees) at 9 MPH (8 knots; 4.1 m/s)
Visibility: 6 or more miles (10+ km)
Ceiling: ceiling and visibility are OK
Clouds: unknown
Weather: no significant weather observed at this time

METAR text: UUWW 231930Z 36004MPS CAVOK 19/08 Q1020 R06/000070 NOSIG
Conditions at: UUWW (MOSCOW/VNUKOVO , RU) observed 1930 UTC 23 June 2019
Temperature: 19.0°C (66°F)
Dewpoint: 8.0°C (46°F) [RH = 49%]
Pressure (altimeter): 30.12 inches Hg (1020.0 mb)
Winds: from the N (360 degrees) at 9 MPH (8 knots; 4.1 m/s)
Visibility: 6 or more miles (10+ km)
Ceiling: ceiling and visibility are OK
Clouds: unknown
Weather: no significant weather observed at this time

METAR text: UUWW 231900Z 36004MPS CAVOK 19/08 Q1020 R06/000070 NOSIG
Conditions at: UUWW (MOSCOW/VNUKOVO , RU) observed 1900 UTC 23 June 2019
Temperature: 19.0°C (66°F)
Dewpoint: 8.0°C (46°F) [RH = 49%]
Pressure (altimeter): 30.12 inches Hg (1020.0 mb)
Winds: from the N (360 degrees) at 9 MPH (8 knots; 4.1 m/s)
Visibility: 6 or more miles (10+ km)
Ceiling: ceiling and visibility are OK
Clouds: unknown
Weather: no significant weather observed at this time

METAR text: UUWW 231830Z 35004MPS CAVOK 20/09 Q1020 R24/000070 NOSIG
Conditions at: UUWW (MOSCOW/VNUKOVO , RU) observed 1830 UTC 23 June 2019
Temperature: 20.0°C (68°F)
Dewpoint: 9.0°C (48°F) [RH = 49%]
Pressure (altimeter): 30.12 inches Hg (1020.0 mb)
Winds: from the N (350 degrees) at 9 MPH (8 knots; 4.1 m/s)
Visibility: 6 or more miles (10+ km)
Ceiling: ceiling and visibility are OK
Clouds: unknown
Weather: no significant weather observed at this time

METAR text: UUWW 231800Z 35006MPS CAVOK 20/09 Q1020 R24/000070 NOSIG
Conditions at: UUWW (MOSCOW/VNUKOVO , RU) observed 1800 UTC 23 June 2019
Temperature: 20.0°C (68°F)
Dewpoint: 9.0°C (48°F) [RH = 49%]
Pressure (altimeter): 30.12 inches Hg (1020.0 mb)
Winds: from the N (350 degrees) at 14 MPH (12 knots; 6.2 m/s)
Visibility: 6 or more miles (10+ km)
Ceiling: ceiling and visibility are OK
Clouds: unknown
Weather: no significant weather observed at this time

METAR text: UUWW 231730Z 33006MPS CAVOK 20/08 Q1020 R24/000070 NOSIG
Conditions at: UUWW (MOSCOW/VNUKOVO , RU) observed 1730 UTC 23 June 2019
Temperature: 20.0°C (68°F)
Dewpoint: 8.0°C (46°F) [RH = 46%]
Pressure (altimeter): 30.12 inches Hg (1020.0 mb)
Winds: from the NNW (330 degrees) at 14 MPH (12 knots; 6.2 m/s)
Visibility: 6 or more miles (10+ km)
Ceiling: ceiling and visibility are OK
Clouds: unknown
Weather: no significant weather observed at this time

METAR text: UUWW 231700Z 33007MPS CAVOK 21/09 Q1020 R24/000070 NOSIG
Conditions at: UUWW (MOSCOW/VNUKOVO , RU) observed 1700 UTC 23 June 2019
Temperature: 21.0°C (70°F)
Dewpoint: 9.0°C (48°F) [RH = 46%]
Pressure (altimeter): 30.12 inches Hg (1020.0 mb)
Winds: from the NNW (330 degrees) at 16 MPH (14 knots; 7.2 m/s)
Visibility: 6 or more miles (10+ km)
Ceiling: ceiling and visibility are OK
Clouds: unknown
Weather: no significant weather observed at this time

METAR text: UUWW 231630Z 33005MPS CAVOK 22/09 Q1020 R06/000070 NOSIG
Conditions at: UUWW (MOSCOW/VNUKOVO , RU) observed 1630 UTC 23 June 2019
Temperature: 22.0°C (72°F)
Dewpoint: 9.0°C (48°F) [RH = 43%]
Pressure (altimeter): 30.12 inches Hg (1020.0 mb)
Winds: from the NNW (330 degrees) at 12 MPH (10 knots; 5.1 m/s)
Visibility: 6 or more miles (10+ km)
Ceiling: ceiling and visibility are OK
Clouds: unknown
Weather: no significant weather observed at this time

METAR text: UUWW 231600Z 34003MPS CAVOK 22/09 Q1020 R06/000070 NOSIG
Conditions at: UUWW (MOSCOW/VNUKOVO , RU) observed 1600 UTC 23 June 2019
Temperature: 22.0°C (72°F)
Dewpoint: 9.0°C (48°F) [RH = 43%]
Pressure (altimeter): 30.12 inches Hg (1020.0 mb)
Winds: from the NNW (340 degrees) at 7 MPH (6 knots; 3.1 m/s)
Visibility: 6 or more miles (10+ km)
Ceiling: ceiling and visibility are OK
Clouds: unknown
Weather: no significant weather observed at this time

METAR text: UUWW 231530Z 33005MPS CAVOK 22/09 Q1020 R06/000070 NOSIG
Conditions at: UUWW (MOSCOW/VNUKOVO , RU) observed 1530 UTC 23 June 2019
Temperature: 22.0°C (72°F)
Dewpoint: 9.0°C (48°F) [RH = 43%]
Pressure (altimeter): 30.12 inches Hg (1020.0 mb)
Winds: from the NNW (330 degrees) at 12 MPH (10 knots; 5.1 m/s)
Visibility: 6 or more miles (10+ km)
Ceiling: ceiling and visibility are OK
Clouds: unknown
Weather: no significant weather observed at this time

METAR text: UUWW 231500Z 35005MPS CAVOK 23/10 Q1020 R06/000070 NOSIG
Conditions at: UUWW (MOSCOW/VNUKOVO , RU) observed 1500 UTC 23 June 2019
Temperature: 23.0°C (73°F)
Dewpoint: 10.0°C (50°F) [RH = 44%]
Pressure (altimeter): 30.12 inches Hg (1020.0 mb)
Winds: from the N (350 degrees) at 12 MPH (10 knots; 5.1 m/s)
Visibility: 6 or more miles (10+ km)
Ceiling: ceiling and visibility are OK
Clouds: unknown
Weather: no significant weather observed at this time

METAR text: UUWW 231430Z 33006MPS CAVOK 23/10 Q1020 R06/000070 NOSIG
Conditions at: UUWW (MOSCOW/VNUKOVO , RU) observed 1430 UTC 23 June 2019
Temperature: 23.0°C (73°F)
Dewpoint: 10.0°C (50°F) [RH = 44%]
Pressure (altimeter): 30.12 inches Hg (1020.0 mb)
Winds: from the NNW (330 degrees) at 14 MPH (12 knots; 6.2 m/s)
Visibility: 6 or more miles (10+ km)
Ceiling: ceiling and visibility are OK
Clouds: unknown
Weather: no significant weather observed at this time

METAR text: UUWW 231400Z 34005MPS CAVOK 24/10 Q1020 R06/000070 NOSIG
Conditions at: UUWW (MOSCOW/VNUKOVO , RU) observed 1400 UTC 23 June 2019
Temperature: 24.0°C (75°F)
Dewpoint: 10.0°C (50°F) [RH = 41%]
Pressure (altimeter): 30.12 inches Hg (1020.0 mb)
Winds: from the NNW (340 degrees) at 12 MPH (10 knots; 5.1 m/s)
Visibility: 6 or more miles (10+ km)
Ceiling: ceiling and visibility are OK
Clouds: unknown
Weather: no significant weather observed at this time

METAR text: UUWW 231330Z 35005MPS CAVOK 24/10 Q1020 R06/000070 NOSIG
Conditions at: UUWW (MOSCOW/VNUKOVO , RU) observed 1330 UTC 23 June 2019
Temperature: 24.0°C (75°F)
Dewpoint: 10.0°C (50°F) [RH = 41%]
Pressure (altimeter): 30.12 inches Hg (1020.0 mb)
Winds: from the N (350 degrees) at 12 MPH (10 knots; 5.1 m/s)
Visibility: 6 or more miles (10+ km)
Ceiling: ceiling and visibility are OK
Clouds: unknown
Weather: no significant weather observed at this time

METAR text: UUWW 231300Z 34005MPS 320V030 CAVOK 24/10 Q1020 R06/000070 NOSIG
Conditions at: UUWW (MOSCOW/VNUKOVO , RU) observed 1300 UTC 23 June 2019
Temperature: 24.0°C (75°F)
Dewpoint: 10.0°C (50°F) [RH = 41%]
Pressure (altimeter): 30.12 inches Hg (1020.0 mb)
Winds: from the NNW (340 degrees) at 12 MPH (10 knots; 5.1 m/s)
Visibility: 6 or more miles (10+ km)
Ceiling: ceiling and visibility are OK
Clouds: unknown
Weather: no significant weather observed at this time

METAR text: UUWW 231230Z 35005MPS CAVOK 25/10 Q1020 R06/000070 NOSIG
Conditions at: UUWW (MOSCOW/VNUKOVO , RU) observed 1230 UTC 23 June 2019
Temperature: 25.0°C (77°F)
Dewpoint: 10.0°C (50°F) [RH = 39%]
Pressure (altimeter): 30.12 inches Hg (1020.0 mb)
Winds: from the N (350 degrees) at 12 MPH (10 knots; 5.1 m/s)
Visibility: 6 or more miles (10+ km)
Ceiling: ceiling and visibility are OK
Clouds: unknown
Weather: no significant weather observed at this time

METAR text: UUWW 231200Z 36004MPS 320V070 CAVOK 26/10 Q1020 R06/000070 NOSIG
Conditions at: UUWW (MOSCOW/VNUKOVO , RU) observed 1200 UTC 23 June 2019
Temperature: 26.0°C (79°F)
Dewpoint: 10.0°C (50°F) [RH = 37%]
Pressure (altimeter): 30.12 inches Hg (1020.0 mb)
Winds: from the N (360 degrees) at 9 MPH (8 knots; 4.1 m/s)
Visibility: 6 or more miles (10+ km)
Ceiling: ceiling and visibility are OK
Clouds: unknown
Weather: no significant weather observed at this time

METAR text: UUWW 231130Z 33005MPS 290V040 CAVOK 26/10 Q1020 R06/000070 NOSIG
Conditions at: UUWW (MOSCOW/VNUKOVO , RU) observed 1130 UTC 23 June 2019
Temperature: 26.0°C (79°F)
Dewpoint: 10.0°C (50°F) [RH = 37%]
Pressure (altimeter): 30.12 inches Hg (1020.0 mb)
Winds: from the NNW (330 degrees) at 12 MPH (10 knots; 5.1 m/s)
Visibility: 6 or more miles (10+ km)
Ceiling: ceiling and visibility are OK
Clouds: unknown
Weather: no significant weather observed at this time

METAR text: UUWW 231100Z 33004MPS CAVOK 25/09 Q1020 R06/000070 NOSIG
Conditions at: UUWW (MOSCOW/VNUKOVO , RU) observed 1100 UTC 23 June 2019
Temperature: 25.0°C (77°F)
Dewpoint: 9.0°C (48°F) [RH = 36%]
Pressure (altimeter): 30.12 inches Hg (1020.0 mb)
Winds: from the NNW (330 degrees) at 9 MPH (8 knots; 4.1 m/s)
Visibility: 6 or more miles (10+ km)
Ceiling: ceiling and visibility are OK
Clouds: unknown
Weather: no significant weather observed at this time

METAR text: UUWW 231030Z 33004MPS 300V010 CAVOK 25/09 Q1020 R06/000070 NOSIG
Conditions at: UUWW (MOSCOW/VNUKOVO , RU) observed 1030 UTC 23 June 2019
Temperature: 25.0°C (77°F)
Dewpoint: 9.0°C (48°F) [RH = 36%]
Pressure (altimeter): 30.12 inches Hg (1020.0 mb)
Winds: from the NNW (330 degrees) at 9 MPH (8 knots; 4.1 m/s)
Visibility: 6 or more miles (10+ km)
Ceiling: ceiling and visibility are OK
Clouds: unknown
Weather: no significant weather observed at this time

METAR text: UUWW 231000Z 35004MPS 310V020 CAVOK 25/10 Q1020 R06/000070 NOSIG
Conditions at: UUWW (MOSCOW/VNUKOVO , RU) observed 1000 UTC 23 June 2019
Temperature: 25.0°C (77°F)
Dewpoint: 10.0°C (50°F) [RH = 39%]
Pressure (altimeter): 30.12 inches Hg (1020.0 mb)
Winds: from the N (350 degrees) at 9 MPH (8 knots; 4.1 m/s)
Visibility: 6 or more miles (10+ km)
Ceiling: ceiling and visibility are OK
Clouds: unknown
Weather: no significant weather observed at this time

METAR text: UUWW 230930Z 35003MPS 300V020 CAVOK 25/11 Q1020 R06/000070 NOSIG
Conditions at: UUWW (MOSCOW/VNUKOVO , RU) observed 0930 UTC 23 June 2019
Temperature: 25.0°C (77°F)
Dewpoint: 11.0°C (52°F) [RH = 41%]
Pressure (altimeter): 30.12 inches Hg (1020.0 mb)
Winds: from the N (350 degrees) at 7 MPH (6 knots; 3.1 m/s)
Visibility: 6 or more miles (10+ km)
Ceiling: ceiling and visibility are OK
Clouds: unknown
Weather: no significant weather observed at this time

METAR text: UUWW 230900Z 04004G10MPS 360V080 CAVOK 25/10 Q1020 R06/000070 NOSIG
Conditions at: UUWW (MOSCOW/VNUKOVO , RU) observed 0900 UTC 23 June 2019
Temperature: 25.0°C (77°F)
Dewpoint: 10.0°C (50°F) [RH = 39%]
Pressure (altimeter): 30.12 inches Hg (1020.0 mb)
Winds: from the NE (40 degrees) at 9 MPH (8 knots; 4.1 m/s)
gusting to 22 MPH (19 knots; 9.8 m/s)
Visibility: 6 or more miles (10+ km)
Ceiling: ceiling and visibility are OK
Clouds: unknown
Weather: no significant weather observed at this time

METAR text: UUWW 230830Z 34004MPS CAVOK 24/09 Q1020 R06/000070 NOSIG
Conditions at: UUWW (MOSCOW/VNUKOVO , RU) observed 0830 UTC 23 June 2019
Temperature: 24.0°C (75°F)
Dewpoint: 9.0°C (48°F) [RH = 38%]
Pressure (altimeter): 30.12 inches Hg (1020.0 mb)
Winds: from the NNW (340 degrees) at 9 MPH (8 knots; 4.1 m/s)
Visibility: 6 or more miles (10+ km)
Ceiling: ceiling and visibility are OK
Clouds: unknown
Weather: no significant weather observed at this time

METAR text: UUWW 230800Z 01005MPS 340V070 CAVOK 24/11 Q1020 R06/000070 NOSIG
Conditions at: UUWW (MOSCOW/VNUKOVO , RU) observed 0800 UTC 23 June 2019
Temperature: 24.0°C (75°F)
Dewpoint: 11.0°C (52°F) [RH = 44%]
Pressure (altimeter): 30.12 inches Hg (1020.0 mb)
Winds: from the N (10 degrees) at 12 MPH (10 knots; 5.1 m/s)
Visibility: 6 or more miles (10+ km)
Ceiling: ceiling and visibility are OK
Clouds: unknown
Weather: no significant weather observed at this time

METAR text: UUWW 230730Z 01004G09MPS CAVOK 23/14 Q1021 R06/000070 NOSIG
Conditions at: UUWW (MOSCOW/VNUKOVO , RU) observed 0730 UTC 23 June 2019
Temperature: 23.0°C (73°F)
Dewpoint: 14.0°C (57°F) [RH = 57%]
Pressure (altimeter): 30.15 inches Hg (1021.0 mb)
Winds: from the N (10 degrees) at 9 MPH (8 knots; 4.1 m/s)
gusting to 20 MPH (17 knots; 8.7 m/s)
Visibility: 6 or more miles (10+ km)
Ceiling: ceiling and visibility are OK
Clouds: unknown
Weather: no significant weather observed at this time

METAR text: UUWW 230700Z 01004MPS CAVOK 23/14 Q1021 R06/000070 NOSIG
Conditions at: UUWW (MOSCOW/VNUKOVO , RU) observed 0700 UTC 23 June 2019
Temperature: 23.0°C (73°F)
Dewpoint: 14.0°C (57°F) [RH = 57%]
Pressure (altimeter): 30.15 inches Hg (1021.0 mb)
Winds: from the N (10 degrees) at 9 MPH (8 knots; 4.1 m/s)
Visibility: 6 or more miles (10+ km)
Ceiling: ceiling and visibility are OK
Clouds: unknown
Weather: no significant weather observed at this time

METAR text: UUWW 230630Z 36004G09MPS 9999 FEW020 22/15 Q1020 R06/000070 NOSIG
Conditions at: UUWW (MOSCOW/VNUKOVO , RU) observed 0630 UTC 23 June 2019
Temperature: 22.0°C (72°F)
Dewpoint: 15.0°C (59°F) [RH = 65%]
Pressure (altimeter): 30.12 inches Hg (1020.0 mb)
Winds: from the N (360 degrees) at 9 MPH (8 knots; 4.1 m/s)
gusting to 20 MPH (17 knots; 8.7 m/s)
Visibility: 6 or more miles (10+ km)
Ceiling: at least 12,000 feet AGL
Clouds: few clouds at 2000 feet AGL
Weather: no significant weather observed at this time

METAR text: UUWW 230600Z 02005MPS 9999 FEW020 21/14 Q1020 R06/000070 NOSIG
Conditions at: UUWW (MOSCOW/VNUKOVO , RU) observed 0600 UTC 23 June 2019
Temperature: 21.0°C (70°F)
Dewpoint: 14.0°C (57°F) [RH = 64%]
Pressure (altimeter): 30.12 inches Hg (1020.0 mb)
Winds: from the NNE (20 degrees) at 12 MPH (10 knots; 5.1 m/s)
Visibility: 6 or more miles (10+ km)
Ceiling: at least 12,000 feet AGL
Clouds: few clouds at 2000 feet AGL
Weather: no significant weather observed at this time

METAR text: UUWW 230530Z 34004MPS 310V040 9999 SCT020 21/15 Q1020 R06/000070 NOSIG
Conditions at: UUWW (MOSCOW/VNUKOVO , RU) observed 0530 UTC 23 June 2019
Temperature: 21.0°C (70°F)
Dewpoint: 15.0°C (59°F) [RH = 69%]
Pressure (altimeter): 30.12 inches Hg (1020.0 mb)
Winds: from the NNW (340 degrees) at 9 MPH (8 knots; 4.1 m/s)
Visibility: 6 or more miles (10+ km)
Ceiling: at least 12,000 feet AGL
Clouds: scattered clouds at 2000 feet AGL
Weather: no significant weather observed at this time

Forecast for: UUWW (MOSCOW/VNUKOVO , RU)
Text: TAF UUWW 241353Z 2415/2515 33003G10MPS 9999 SCT040 TX23/2415Z TN12/2503Z
Forecast period: 1500 UTC 24 June 2019 to 1500 UTC 25 June 2019
Forecast type: FROM: standard forecast or significant change
Winds: from the NNW (330 degrees) at 7 MPH (6 knots; 3.1 m/s)
gusting to 22 MPH (19 knots; 9.8 m/s)
Visibility: 6 or more miles 10+ km)
Ceiling: at least 12,000 feet AGL
Clouds: scattered clouds at 4000 feet AGL
Weather: no significant weather forecast for this period